sensor_id;sensor_type;location;lat;lon;timestamp;P1;durP1;ratioP1;P2;durP2;ratioP2
22935;SDS011;11633;42.716;23.312;2022-09-17T00:01:16;2.33;;;1.67;;
22935;SDS011;11633;42.716;23.312;2022-09-17T00:03:41;2.78;;;1.85;;
22935;SDS011;11633;42.716;23.312;2022-09-17T00:06:08;2.88;;;2.13;;
22935;SDS011;11633;42.716;23.312;2022-09-17T00:08:34;3.60;;;1.75;;
22935;SDS011;11633;42.716;23.312;2022-09-17T00:11:07;2.47;;;2.03;;
22935;SDS011;11633;42.716;23.312;2022-09-17T00:13:32;4.43;;;2.05;;
22935;SDS011;11633;42.716;23.312;2022-09-17T00:15:58;2.38;;;1.90;;
22935;SDS011;11633;42.716;23.312;2022-09-17T00:18:23;2.20;;;2.00;;
22935;SDS011;11633;42.716;23.312;2022-09-17T00:20:48;2.65;;;2.08;;
22935;SDS011;11633;42.716;23.312;2022-09-17T00:23:14;4.40;;;2.13;;
22935;SDS011;11633;42.716;23.312;2022-09-17T00:25:40;7.35;;;2.90;;
22935;SDS011;11633;42.716;23.312;2022-09-17T00:28:05;2.97;;;2.03;;
22935;SDS011;11633;42.716;23.312;2022-09-17T00:30:30;3.63;;;2.45;;
22935;SDS011;11633;42.716;23.312;2022-09-17T00:32:56;3.13;;;2.10;;
22935;SDS011;11633;42.716;23.312;2022-09-17T00:35:25;3.65;;;1.85;;
22935;SDS011;11633;42.716;23.312;2022-09-17T00:37:50;2.38;;;2.17;;
22935;SDS011;11633;42.716;23.312;2022-09-17T00:40:15;1.95;;;1.65;;
22935;SDS011;11633;42.716;23.312;2022-09-17T00:42:41;3.53;;;1.70;;
22935;SDS011;11633;42.716;23.312;2022-09-17T00:45:07;4.55;;;2.40;;
22935;SDS011;11633;42.716;23.312;2022-09-17T00:47:45;3.65;;;1.67;;
22935;SDS011;11633;42.716;23.312;2022-09-17T00:50:13;2.35;;;1.75;;
22935;SDS011;11633;42.716;23.312;2022-09-17T00:52:48;3.05;;;1.40;;
22935;SDS011;11633;42.716;23.312;2022-09-17T00:55:22;4.25;;;1.80;;
22935;SDS011;11633;42.716;23.312;2022-09-17T00:57:48;2.35;;;1.70;;
22935;SDS011;11633;42.716;23.312;2022-09-17T01:00:15;2.58;;;1.80;;
22935;SDS011;11633;42.716;23.312;2022-09-17T01:02:41;3.83;;;1.75;;
22935;SDS011;11633;42.716;23.312;2022-09-17T01:05:07;1.73;;;1.40;;
22935;SDS011;11633;42.716;23.312;2022-09-17T01:18:05;2.20;;;1.73;;
22935;SDS011;11633;42.716;23.312;2022-09-17T01:23:17;1.70;;;1.23;;
22935;SDS011;11633;42.716;23.312;2022-09-17T01:28:23;2.50;;;1.60;;
22935;SDS011;11633;42.716;23.312;2022-09-17T01:33:59;3.22;;;1.60;;
22935;SDS011;11633;42.716;23.312;2022-09-17T01:36:42;6.25;;;2.80;;
22935;SDS011;11633;42.716;23.312;2022-09-17T01:44:05;1.80;;;1.50;;
22935;SDS011;11633;42.716;23.312;2022-09-17T01:46:34;2.08;;;1.27;;
22935;SDS011;11633;42.716;23.312;2022-09-17T01:49:01;3.30;;;1.90;;
22935;SDS011;11633;42.716;23.312;2022-09-17T01:51:30;2.50;;;1.73;;
22935;SDS011;11633;42.716;23.312;2022-09-17T01:54:04;1.52;;;1.42;;
22935;SDS011;11633;42.716;23.312;2022-09-17T01:56:38;5.80;;;2.65;;
22935;SDS011;11633;42.716;23.312;2022-09-17T01:59:10;3.90;;;1.67;;
22935;SDS011;11633;42.716;23.312;2022-09-17T02:01:37;5.35;;;2.17;;
22935;SDS011;11633;42.716;23.312;2022-09-17T02:04:06;2.65;;;1.90;;
22935;SDS011;11633;42.716;23.312;2022-09-17T02:06:35;2.53;;;1.55;;
22935;SDS011;11633;42.716;23.312;2022-09-17T02:09:04;2.22;;;1.67;;
22935;SDS011;11633;42.716;23.312;2022-09-17T02:11:34;2.55;;;1.63;;
22935;SDS011;11633;42.716;23.312;2022-09-17T02:16:30;2.88;;;1.48;;
22935;SDS011;11633;42.716;23.312;2022-09-17T02:23:58;1.95;;;1.52;;
22935;SDS011;11633;42.716;23.312;2022-09-17T02:26:27;2.60;;;1.40;;
22935;SDS011;11633;42.716;23.312;2022-09-17T02:28:53;2.22;;;1.83;;
22935;SDS011;11633;42.716;23.312;2022-09-17T02:31:19;2.28;;;1.83;;
22935;SDS011;11633;42.716;23.312;2022-09-17T02:33:47;3.55;;;2.45;;
22935;SDS011;11633;42.716;23.312;2022-09-17T02:36:12;4.47;;;2.75;;
22935;SDS011;11633;42.716;23.312;2022-09-17T02:38:40;5.30;;;3.10;;
22935;SDS011;11633;42.716;23.312;2022-09-17T02:41:11;2.22;;;1.92;;
22935;SDS011;11633;42.716;23.312;2022-09-17T02:46:24;4.15;;;2.22;;
22935;SDS011;11633;42.716;23.312;2022-09-17T02:56:48;4.72;;;2.38;;
22935;SDS011;11633;42.716;23.312;2022-09-17T02:59:23;3.50;;;2.00;;
22935;SDS011;11633;42.716;23.312;2022-09-17T03:04:17;4.25;;;2.00;;
22935;SDS011;11633;42.716;23.312;2022-09-17T03:06:44;3.30;;;2.30;;
22935;SDS011;11633;42.716;23.312;2022-09-17T03:09:10;7.32;;;3.75;;
22935;SDS011;11633;42.716;23.312;2022-09-17T03:11:35;5.50;;;1.92;;
22935;SDS011;11633;42.716;23.312;2022-09-17T03:14:01;2.88;;;1.90;;
22935;SDS011;11633;42.716;23.312;2022-09-17T03:16:26;4.05;;;2.53;;
22935;SDS011;11633;42.716;23.312;2022-09-17T03:18:51;3.25;;;2.30;;
22935;SDS011;11633;42.716;23.312;2022-09-17T03:21:16;4.97;;;2.08;;
22935;SDS011;11633;42.716;23.312;2022-09-17T03:23:42;3.00;;;1.90;;
22935;SDS011;11633;42.716;23.312;2022-09-17T03:26:07;2.65;;;2.20;;
22935;SDS011;11633;42.716;23.312;2022-09-17T03:28:32;2.15;;;1.65;;
22935;SDS011;11633;42.716;23.312;2022-09-17T03:30:58;2.50;;;1.95;;
22935;SDS011;11633;42.716;23.312;2022-09-17T03:33:23;3.33;;;2.00;;
22935;SDS011;11633;42.716;23.312;2022-09-17T03:35:48;4.15;;;2.15;;
22935;SDS011;11633;42.716;23.312;2022-09-17T03:38:14;4.28;;;3.10;;
22935;SDS011;11633;42.716;23.312;2022-09-17T03:40:39;6.07;;;3.90;;
22935;SDS011;11633;42.716;23.312;2022-09-17T03:43:05;4.25;;;3.13;;
22935;SDS011;11633;42.716;23.312;2022-09-17T03:45:30;4.43;;;3.00;;
22935;SDS011;11633;42.716;23.312;2022-09-17T03:47:56;5.00;;;2.60;;
22935;SDS011;11633;42.716;23.312;2022-09-17T03:50:21;4.32;;;2.70;;
22935;SDS011;11633;42.716;23.312;2022-09-17T03:52:46;11.25;;;6.55;;
22935;SDS011;11633;42.716;23.312;2022-09-17T03:55:12;6.43;;;4.18;;
22935;SDS011;11633;42.716;23.312;2022-09-17T03:57:37;11.02;;;5.60;;
22935;SDS011;11633;42.716;23.312;2022-09-17T04:00:02;12.68;;;7.47;;
22935;SDS011;11633;42.716;23.312;2022-09-17T04:02:28;12.35;;;7.97;;
22935;SDS011;11633;42.716;23.312;2022-09-17T04:04:53;12.02;;;6.57;;
22935;SDS011;11633;42.716;23.312;2022-09-17T04:07:19;5.65;;;4.63;;
22935;SDS011;11633;42.716;23.312;2022-09-17T04:09:44;8.40;;;4.43;;
22935;SDS011;11633;42.716;23.312;2022-09-17T04:12:09;5.18;;;3.83;;
22935;SDS011;11633;42.716;23.312;2022-09-17T04:14:34;5.20;;;2.97;;
22935;SDS011;11633;42.716;23.312;2022-09-17T04:17:00;4.07;;;3.00;;
22935;SDS011;11633;42.716;23.312;2022-09-17T04:19:25;4.93;;;2.92;;
22935;SDS011;11633;42.716;23.312;2022-09-17T04:21:50;7.22;;;3.47;;
22935;SDS011;11633;42.716;23.312;2022-09-17T04:24:17;3.22;;;2.15;;
22935;SDS011;11633;42.716;23.312;2022-09-17T04:26:42;4.18;;;3.17;;
22935;SDS011;11633;42.716;23.312;2022-09-17T04:29:07;3.72;;;2.45;;
22935;SDS011;11633;42.716;23.312;2022-09-17T04:31:34;5.97;;;2.70;;
22935;SDS011;11633;42.716;23.312;2022-09-17T04:33:59;3.63;;;2.47;;
22935;SDS011;11633;42.716;23.312;2022-09-17T04:36:24;2.72;;;2.42;;
22935;SDS011;11633;42.716;23.312;2022-09-17T04:38:49;3.97;;;2.55;;
22935;SDS011;11633;42.716;23.312;2022-09-17T04:41:15;3.40;;;2.05;;
22935;SDS011;11633;42.716;23.312;2022-09-17T04:43:40;4.38;;;2.08;;
22935;SDS011;11633;42.716;23.312;2022-09-17T04:46:05;3.95;;;2.35;;
22935;SDS011;11633;42.716;23.312;2022-09-17T04:48:30;3.85;;;2.88;;
22935;SDS011;11633;42.716;23.312;2022-09-17T04:50:56;4.03;;;2.50;;
22935;SDS011;11633;42.716;23.312;2022-09-17T04:53:21;4.07;;;2.20;;
22935;SDS011;11633;42.716;23.312;2022-09-17T04:55:46;5.10;;;2.08;;
22935;SDS011;11633;42.716;23.312;2022-09-17T04:58:11;2.85;;;2.00;;
22935;SDS011;11633;42.716;23.312;2022-09-17T05:00:37;3.88;;;2.35;;
22935;SDS011;11633;42.716;23.312;2022-09-17T05:03:02;4.53;;;2.17;;
22935;SDS011;11633;42.716;23.312;2022-09-17T05:05:27;5.10;;;2.78;;
22935;SDS011;11633;42.716;23.312;2022-09-17T05:07:53;1.45;;;1.20;;
22935;SDS011;11633;42.716;23.312;2022-09-17T05:10:18;3.05;;;1.30;;
22935;SDS011;11633;42.716;23.312;2022-09-17T05:12:53;1.23;;;1.02;;
22935;SDS011;11633;42.716;23.312;2022-09-17T05:15:19;3.28;;;1.33;;
22935;SDS011;11633;42.716;23.312;2022-09-17T05:17:45;2.95;;;1.40;;
22935;SDS011;11633;42.716;23.312;2022-09-17T05:20:10;4.65;;;1.40;;
22935;SDS011;11633;42.716;23.312;2022-09-17T05:22:40;2.78;;;1.33;;
22935;SDS011;11633;42.716;23.312;2022-09-17T05:25:06;3.15;;;1.70;;
22935;SDS011;11633;42.716;23.312;2022-09-17T05:27:31;2.85;;;1.75;;
22935;SDS011;11633;42.716;23.312;2022-09-17T05:29:56;5.03;;;1.60;;
22935;SDS011;11633;42.716;23.312;2022-09-17T05:32:21;2.08;;;1.30;;
22935;SDS011;11633;42.716;23.312;2022-09-17T05:34:47;5.15;;;1.60;;
22935;SDS011;11633;42.716;23.312;2022-09-17T05:37:12;2.55;;;1.45;;
22935;SDS011;11633;42.716;23.312;2022-09-17T05:39:37;3.30;;;1.35;;
22935;SDS011;11633;42.716;23.312;2022-09-17T05:42:03;3.70;;;1.48;;
22935;SDS011;11633;42.716;23.312;2022-09-17T05:44:28;1.23;;;1.05;;
22935;SDS011;11633;42.716;23.312;2022-09-17T05:46:53;3.45;;;1.55;;
22935;SDS011;11633;42.716;23.312;2022-09-17T05:49:19;2.67;;;1.42;;
22935;SDS011;11633;42.716;23.312;2022-09-17T05:51:44;2.25;;;1.95;;
22935;SDS011;11633;42.716;23.312;2022-09-17T05:54:09;1.52;;;1.35;;
22935;SDS011;11633;42.716;23.312;2022-09-17T05:56:34;3.50;;;1.65;;
22935;SDS011;11633;42.716;23.312;2022-09-17T05:59:00;2.35;;;1.63;;
22935;SDS011;11633;42.716;23.312;2022-09-17T06:01:25;1.73;;;1.45;;
22935;SDS011;11633;42.716;23.312;2022-09-17T06:03:53;4.00;;;1.77;;
22935;SDS011;11633;42.716;23.312;2022-09-17T06:06:19;3.33;;;1.60;;
22935;SDS011;11633;42.716;23.312;2022-09-17T06:08:44;4.18;;;2.22;;
22935;SDS011;11633;42.716;23.312;2022-09-17T06:11:09;4.65;;;1.73;;
22935;SDS011;11633;42.716;23.312;2022-09-17T06:13:35;2.65;;;2.00;;
22935;SDS011;11633;42.716;23.312;2022-09-17T06:16:00;3.22;;;1.98;;
22935;SDS011;11633;42.716;23.312;2022-09-17T06:18:27;2.72;;;1.35;;
22935;SDS011;11633;42.716;23.312;2022-09-17T06:20:53;4.07;;;1.80;;
22935;SDS011;11633;42.716;23.312;2022-09-17T06:23:19;6.22;;;1.65;;
22935;SDS011;11633;42.716;23.312;2022-09-17T06:25:49;2.42;;;1.25;;
22935;SDS011;11633;42.716;23.312;2022-09-17T06:28:14;2.80;;;1.27;;
22935;SDS011;11633;42.716;23.312;2022-09-17T06:30:39;1.70;;;1.45;;
22935;SDS011;11633;42.716;23.312;2022-09-17T06:33:04;3.70;;;1.05;;
22935;SDS011;11633;42.716;23.312;2022-09-17T06:35:30;3.70;;;1.45;;
22935;SDS011;11633;42.716;23.312;2022-09-17T06:37:55;1.85;;;1.20;;
22935;SDS011;11633;42.716;23.312;2022-09-17T06:40:20;2.35;;;1.45;;
22935;SDS011;11633;42.716;23.312;2022-09-17T06:42:47;3.30;;;1.52;;
22935;SDS011;11633;42.716;23.312;2022-09-17T06:45:12;3.30;;;1.80;;
22935;SDS011;11633;42.716;23.312;2022-09-17T06:47:38;1.75;;;1.50;;
22935;SDS011;11633;42.716;23.312;2022-09-17T06:50:03;2.20;;;1.42;;
22935;SDS011;11633;42.716;23.312;2022-09-17T06:52:28;4.18;;;1.83;;
22935;SDS011;11633;42.716;23.312;2022-09-17T06:54:54;3.58;;;1.70;;
22935;SDS011;11633;42.716;23.312;2022-09-17T06:57:19;4.20;;;1.73;;
22935;SDS011;11633;42.716;23.312;2022-09-17T06:59:44;1.95;;;1.38;;
22935;SDS011;11633;42.716;23.312;2022-09-17T07:02:09;1.35;;;1.25;;
22935;SDS011;11633;42.716;23.312;2022-09-17T07:04:35;2.10;;;1.17;;
22935;SDS011;11633;42.716;23.312;2022-09-17T07:07:00;0.98;;;0.88;;
22935;SDS011;11633;42.716;23.312;2022-09-17T07:09:25;4.22;;;0.95;;
22935;SDS011;11633;42.716;23.312;2022-09-17T07:11:50;3.00;;;1.20;;
22935;SDS011;11633;42.716;23.312;2022-09-17T07:14:16;2.58;;;1.42;;
22935;SDS011;11633;42.716;23.312;2022-09-17T07:16:43;2.92;;;1.15;;
22935;SDS011;11633;42.716;23.312;2022-09-17T07:19:08;2.40;;;1.67;;
22935;SDS011;11633;42.716;23.312;2022-09-17T07:21:33;3.53;;;1.10;;
22935;SDS011;11633;42.716;23.312;2022-09-17T07:23:59;2.25;;;1.35;;
22935;SDS011;11633;42.716;23.312;2022-09-17T07:26:24;3.65;;;1.23;;
22935;SDS011;11633;42.716;23.312;2022-09-17T07:28:49;2.40;;;1.10;;
22935;SDS011;11633;42.716;23.312;2022-09-17T07:31:14;2.25;;;1.33;;
22935;SDS011;11633;42.716;23.312;2022-09-17T07:33:40;2.53;;;1.45;;
22935;SDS011;11633;42.716;23.312;2022-09-17T07:36:07;2.80;;;0.82;;
22935;SDS011;11633;42.716;23.312;2022-09-17T07:38:32;1.33;;;0.70;;
22935;SDS011;11633;42.716;23.312;2022-09-17T07:40:59;3.35;;;1.20;;
22935;SDS011;11633;42.716;23.312;2022-09-17T07:43:25;0.80;;;0.80;;
22935;SDS011;11633;42.716;23.312;2022-09-17T07:45:51;2.35;;;1.02;;
22935;SDS011;11633;42.716;23.312;2022-09-17T07:48:17;1.10;;;0.80;;
22935;SDS011;11633;42.716;23.312;2022-09-17T07:50:42;1.45;;;0.70;;
22935;SDS011;11633;42.716;23.312;2022-09-17T07:53:08;1.30;;;0.57;;
22935;SDS011;11633;42.716;23.312;2022-09-17T07:55:33;1.58;;;0.60;;
22935;SDS011;11633;42.716;23.312;2022-09-17T07:57:58;3.20;;;1.00;;
22935;SDS011;11633;42.716;23.312;2022-09-17T08:00:23;2.22;;;1.05;;
22935;SDS011;11633;42.716;23.312;2022-09-17T08:02:53;1.67;;;1.00;;
22935;SDS011;11633;42.716;23.312;2022-09-17T08:05:18;1.52;;;0.50;;
22935;SDS011;11633;42.716;23.312;2022-09-17T08:07:44;0.98;;;0.45;;
22935;SDS011;11633;42.716;23.312;2022-09-17T08:10:13;2.80;;;1.33;;
22935;SDS011;11633;42.716;23.312;2022-09-17T08:12:38;2.28;;;1.30;;
22935;SDS011;11633;42.716;23.312;2022-09-17T08:15:04;3.70;;;1.50;;
22935;SDS011;11633;42.716;23.312;2022-09-17T08:17:29;3.15;;;0.70;;
22935;SDS011;11633;42.716;23.312;2022-09-17T08:19:55;2.33;;;0.63;;
22935;SDS011;11633;42.716;23.312;2022-09-17T08:22:20;0.70;;;0.52;;
22935;SDS011;11633;42.716;23.312;2022-09-17T08:24:45;1.45;;;0.70;;
22935;SDS011;11633;42.716;23.312;2022-09-17T08:27:12;1.90;;;1.23;;
22935;SDS011;11633;42.716;23.312;2022-09-17T08:29:37;2.20;;;0.50;;
22935;SDS011;11633;42.716;23.312;2022-09-17T08:32:02;2.22;;;0.52;;
22935;SDS011;11633;42.716;23.312;2022-09-17T08:34:28;0.70;;;0.60;;
22935;SDS011;11633;42.716;23.312;2022-09-17T08:36:53;1.48;;;1.15;;
22935;SDS011;11633;42.716;23.312;2022-09-17T08:39:18;4.28;;;1.55;;
22935;SDS011;11633;42.716;23.312;2022-09-17T08:44:23;2.53;;;0.70;;
22935;SDS011;11633;42.716;23.312;2022-09-17T08:46:49;2.55;;;0.80;;
22935;SDS011;11633;42.716;23.312;2022-09-17T08:56:49;2.50;;;0.70;;
22935;SDS011;11633;42.716;23.312;2022-09-17T08:59:20;4.43;;;0.90;;
22935;SDS011;11633;42.716;23.312;2022-09-17T09:06:54;1.33;;;0.63;;
22935;SDS011;11633;42.716;23.312;2022-09-17T09:09:24;1.45;;;0.60;;
22935;SDS011;11633;42.716;23.312;2022-09-17T09:11:53;1.05;;;0.50;;
22935;SDS011;11633;42.716;23.312;2022-09-17T09:14:23;0.75;;;0.70;;
22935;SDS011;11633;42.716;23.312;2022-09-17T09:16:50;1.55;;;0.52;;
22935;SDS011;11633;42.716;23.312;2022-09-17T09:19:23;0.95;;;0.60;;
22935;SDS011;11633;42.716;23.312;2022-09-17T09:24:49;1.95;;;0.60;;
22935;SDS011;11633;42.716;23.312;2022-09-17T09:27:18;2.78;;;0.85;;
22935;SDS011;11633;42.716;23.312;2022-09-17T09:34:43;1.45;;;0.70;;
22935;SDS011;11633;42.716;23.312;2022-09-17T09:39:35;1.38;;;1.02;;
22935;SDS011;11633;42.716;23.312;2022-09-17T09:42:03;1.83;;;0.88;;
22935;SDS011;11633;42.716;23.312;2022-09-17T09:44:31;1.35;;;0.90;;
22935;SDS011;11633;42.716;23.312;2022-09-17T09:49:43;1.23;;;0.90;;
22935;SDS011;11633;42.716;23.312;2022-09-17T09:58:04;2.13;;;1.40;;
22935;SDS011;11633;42.716;23.312;2022-09-17T10:02:57;1.67;;;1.00;;
22935;SDS011;11633;42.716;23.312;2022-09-17T10:05:23;2.95;;;1.20;;
22935;SDS011;11633;42.716;23.312;2022-09-17T10:07:48;3.03;;;1.00;;
22935;SDS011;11633;42.716;23.312;2022-09-17T10:10:14;2.10;;;1.63;;
22935;SDS011;11633;42.716;23.312;2022-09-17T10:12:39;3.10;;;1.10;;
22935;SDS011;11633;42.716;23.312;2022-09-17T10:15:27;1.27;;;0.80;;
22935;SDS011;11633;42.716;23.312;2022-09-17T10:18:13;1.77;;;1.00;;
22935;SDS011;11633;42.716;23.312;2022-09-17T10:20:49;2.33;;;0.82;;
22935;SDS011;11633;42.716;23.312;2022-09-17T10:23:15;2.65;;;1.38;;
22935;SDS011;11633;42.716;23.312;2022-09-17T10:25:41;1.70;;;1.35;;
22935;SDS011;11633;42.716;23.312;2022-09-17T10:28:19;3.88;;;1.00;;
22935;SDS011;11633;42.716;23.312;2022-09-17T10:30:55;2.13;;;0.70;;
22935;SDS011;11633;42.716;23.312;2022-09-17T10:33:22;1.92;;;0.80;;
22935;SDS011;11633;42.716;23.312;2022-09-17T10:35:56;2.35;;;0.65;;
22935;SDS011;11633;42.716;23.312;2022-09-17T10:38:41;2.08;;;0.73;;
22935;SDS011;11633;42.716;23.312;2022-09-17T10:41:13;1.05;;;0.55;;
22935;SDS011;11633;42.716;23.312;2022-09-17T10:43:39;3.35;;;1.10;;
22935;SDS011;11633;42.716;23.312;2022-09-17T10:46:06;2.75;;;1.00;;
22935;SDS011;11633;42.716;23.312;2022-09-17T10:48:35;1.73;;;0.60;;
22935;SDS011;11633;42.716;23.312;2022-09-17T10:51:02;1.17;;;1.02;;
22935;SDS011;11633;42.716;23.312;2022-09-17T10:53:30;1.70;;;1.15;;
22935;SDS011;11633;42.716;23.312;2022-09-17T10:56:00;1.10;;;0.70;;
22935;SDS011;11633;42.716;23.312;2022-09-17T11:03:58;1.08;;;0.75;;
22935;SDS011;11633;42.716;23.312;2022-09-17T11:06:44;2.92;;;0.93;;
22935;SDS011;11633;42.716;23.312;2022-09-17T11:09:14;3.08;;;1.50;;
22935;SDS011;11633;42.716;23.312;2022-09-17T11:11:47;3.20;;;2.05;;
22935;SDS011;11633;42.716;23.312;2022-09-17T11:14:37;2.05;;;1.85;;
22935;SDS011;11633;42.716;23.312;2022-09-17T11:19:57;1.10;;;0.90;;
22935;SDS011;11633;42.716;23.312;2022-09-17T11:22:34;1.80;;;1.02;;
22935;SDS011;11633;42.716;23.312;2022-09-17T11:35:30;1.65;;;1.13;;
22935;SDS011;11633;42.716;23.312;2022-09-17T11:38:00;1.27;;;0.80;;
22935;SDS011;11633;42.716;23.312;2022-09-17T11:41:27;1.50;;;0.60;;
22935;SDS011;11633;42.716;23.312;2022-09-17T11:43:24;1.67;;;0.70;;
22935;SDS011;11633;42.716;23.312;2022-09-17T11:48:16;1.30;;;1.20;;
22935;SDS011;11633;42.716;23.312;2022-09-17T11:50:44;2.85;;;1.30;;
22935;SDS011;11633;42.716;23.312;2022-09-17T11:58:26;0.50;;;0.40;;
22935;SDS011;11633;42.716;23.312;2022-09-17T12:00:56;1.48;;;1.02;;
22935;SDS011;11633;42.716;23.312;2022-09-17T12:03:30;0.88;;;0.68;;
22935;SDS011;11633;42.716;23.312;2022-09-17T12:05:57;1.48;;;0.43;;
22935;SDS011;11633;42.716;23.312;2022-09-17T12:08:28;0.47;;;0.38;;
22935;SDS011;11633;42.716;23.312;2022-09-17T12:11:06;4.43;;;0.80;;
22935;SDS011;11633;42.716;23.312;2022-09-17T12:13:44;3.55;;;1.23;;
22935;SDS011;11633;42.716;23.312;2022-09-17T12:16:21;0.90;;;0.55;;
22935;SDS011;11633;42.716;23.312;2022-09-17T12:18:54;1.30;;;0.65;;
22935;SDS011;11633;42.716;23.312;2022-09-17T12:21:22;0.95;;;0.47;;
22935;SDS011;11633;42.716;23.312;2022-09-17T12:24:31;1.42;;;0.52;;
22935;SDS011;11633;42.716;23.312;2022-09-17T12:33:57;1.40;;;0.80;;
22935;SDS011;11633;42.716;23.312;2022-09-17T12:36:36;1.30;;;0.60;;
22935;SDS011;11633;42.716;23.312;2022-09-17T12:52:35;2.35;;;0.68;;
22935;SDS011;11633;42.716;23.312;2022-09-17T12:55:09;0.65;;;0.50;;
22935;SDS011;11633;42.716;23.312;2022-09-17T13:00:25;0.88;;;0.80;;
22935;SDS011;11633;42.716;23.312;2022-09-17T13:13:30;1.88;;;1.20;;
22935;SDS011;11633;42.716;23.312;2022-09-17T13:15:59;2.25;;;1.05;;
22935;SDS011;11633;42.716;23.312;2022-09-17T13:26:05;2.05;;;1.42;;
22935;SDS011;11633;42.716;23.312;2022-09-17T13:28:38;6.00;;;1.80;;
22935;SDS011;11633;42.716;23.312;2022-09-17T13:31:04;4.15;;;1.52;;
22935;SDS011;11633;42.716;23.312;2022-09-17T13:38:59;1.95;;;1.40;;
22935;SDS011;11633;42.716;23.312;2022-09-17T13:41:24;2.72;;;1.55;;
22935;SDS011;11633;42.716;23.312;2022-09-17T13:43:50;3.53;;;1.98;;
22935;SDS011;11633;42.716;23.312;2022-09-17T13:46:20;3.15;;;1.20;;
22935;SDS011;11633;42.716;23.312;2022-09-17T13:48:47;2.97;;;1.33;;
22935;SDS011;11633;42.716;23.312;2022-09-17T13:53:56;2.35;;;0.90;;
22935;SDS011;11633;42.716;23.312;2022-09-17T13:56:33;1.02;;;0.90;;
22935;SDS011;11633;42.716;23.312;2022-09-17T13:59:07;1.20;;;0.90;;
22935;SDS011;11633;42.716;23.312;2022-09-17T14:04:33;3.92;;;1.42;;
22935;SDS011;11633;42.716;23.312;2022-09-17T14:06:58;2.80;;;1.23;;
22935;SDS011;11633;42.716;23.312;2022-09-17T14:09:32;1.90;;;1.50;;
22935;SDS011;11633;42.716;23.312;2022-09-17T14:11:57;2.90;;;1.42;;
22935;SDS011;11633;42.716;23.312;2022-09-17T14:16:51;2.28;;;1.20;;
22935;SDS011;11633;42.716;23.312;2022-09-17T14:19:18;2.42;;;1.42;;
22935;SDS011;11633;42.716;23.312;2022-09-17T14:24:36;2.25;;;1.00;;
22935;SDS011;11633;42.716;23.312;2022-09-17T14:27:12;1.50;;;0.73;;
22935;SDS011;11633;42.716;23.312;2022-09-17T14:32:14;2.03;;;1.35;;
22935;SDS011;11633;42.716;23.312;2022-09-17T14:34:39;2.10;;;1.10;;
22935;SDS011;11633;42.716;23.312;2022-09-17T14:37:06;2.83;;;1.13;;
22935;SDS011;11633;42.716;23.312;2022-09-17T14:39:35;1.30;;;1.00;;
22935;SDS011;11633;42.716;23.312;2022-09-17T14:42:01;1.67;;;1.33;;
22935;SDS011;11633;42.716;23.312;2022-09-17T14:44:28;2.47;;;0.77;;
22935;SDS011;11633;42.716;23.312;2022-09-17T14:47:15;2.67;;;1.48;;
22935;SDS011;11633;42.716;23.312;2022-09-17T14:49:42;0.98;;;0.80;;
22935;SDS011;11633;42.716;23.312;2022-09-17T14:57:34;0.82;;;0.60;;
22935;SDS011;11633;42.716;23.312;2022-09-17T15:00:00;1.55;;;0.88;;
22935;SDS011;11633;42.716;23.312;2022-09-17T15:02:39;0.60;;;0.50;;
22935;SDS011;11633;42.716;23.312;2022-09-17T15:05:25;2.38;;;1.20;;
22935;SDS011;11633;42.716;23.312;2022-09-17T15:13:20;0.50;;;0.40;;
22935;SDS011;11633;42.716;23.312;2022-09-17T15:18:24;0.60;;;0.60;;
22935;SDS011;11633;42.716;23.312;2022-09-17T15:20:52;1.05;;;0.65;;
22935;SDS011;11633;42.716;23.312;2022-09-17T15:23:19;0.90;;;0.68;;
22935;SDS011;11633;42.716;23.312;2022-09-17T15:25:48;1.42;;;0.75;;
22935;SDS011;11633;42.716;23.312;2022-09-17T15:30:52;1.67;;;1.58;;
22935;SDS011;11633;42.716;23.312;2022-09-17T15:33:17;1.30;;;1.08;;
22935;SDS011;11633;42.716;23.312;2022-09-17T15:35:59;1.17;;;1.08;;
22935;SDS011;11633;42.716;23.312;2022-09-17T15:38:26;1.02;;;0.70;;
22935;SDS011;11633;42.716;23.312;2022-09-17T15:40:51;1.10;;;0.80;;
22935;SDS011;11633;42.716;23.312;2022-09-17T15:43:26;1.13;;;0.85;;
22935;SDS011;11633;42.716;23.312;2022-09-17T15:45:52;1.83;;;1.08;;
22935;SDS011;11633;42.716;23.312;2022-09-17T15:50:53;0.82;;;0.82;;
22935;SDS011;11633;42.716;23.312;2022-09-17T15:53:22;1.60;;;0.95;;
22935;SDS011;11633;42.716;23.312;2022-09-17T15:58:23;1.05;;;0.57;;
22935;SDS011;11633;42.716;23.312;2022-09-17T16:08:48;1.88;;;0.70;;
22935;SDS011;11633;42.716;23.312;2022-09-17T16:11:17;1.33;;;0.40;;
22935;SDS011;11633;42.716;23.312;2022-09-17T16:13:46;1.15;;;0.40;;
22935;SDS011;11633;42.716;23.312;2022-09-17T16:16:30;1.08;;;0.30;;
22935;SDS011;11633;42.716;23.312;2022-09-17T16:18:56;0.98;;;0.57;;
22935;SDS011;11633;42.716;23.312;2022-09-17T16:21:21;0.45;;;0.28;;
22935;SDS011;11633;42.716;23.312;2022-09-17T16:24:41;0.50;;;0.22;;
22935;SDS011;11633;42.716;23.312;2022-09-17T16:27:09;0.28;;;0.17;;
22935;SDS011;11633;42.716;23.312;2022-09-17T16:29:35;0.20;;;0.20;;
22935;SDS011;11633;42.716;23.312;2022-09-17T16:32:00;2.15;;;0.35;;
22935;SDS011;11633;42.716;23.312;2022-09-17T16:34:25;0.65;;;0.30;;
22935;SDS011;11633;42.716;23.312;2022-09-17T16:36:50;0.90;;;0.50;;
22935;SDS011;11633;42.716;23.312;2022-09-17T16:39:16;1.13;;;0.60;;
22935;SDS011;11633;42.716;23.312;2022-09-17T16:41:41;2.72;;;0.63;;
22935;SDS011;11633;42.716;23.312;2022-09-17T16:44:06;0.90;;;0.70;;
22935;SDS011;11633;42.716;23.312;2022-09-17T16:46:31;1.40;;;1.00;;
22935;SDS011;11633;42.716;23.312;2022-09-17T16:48:57;1.80;;;0.90;;
22935;SDS011;11633;42.716;23.312;2022-09-17T16:51:22;2.03;;;1.27;;
22935;SDS011;11633;42.716;23.312;2022-09-17T16:53:47;1.73;;;1.05;;
22935;SDS011;11633;42.716;23.312;2022-09-17T16:56:14;1.40;;;0.85;;
22935;SDS011;11633;42.716;23.312;2022-09-17T16:58:39;1.40;;;1.15;;
22935;SDS011;11633;42.716;23.312;2022-09-17T17:01:09;1.90;;;1.15;;
22935;SDS011;11633;42.716;23.312;2022-09-17T17:03:35;1.15;;;1.02;;
22935;SDS011;11633;42.716;23.312;2022-09-17T17:06:00;0.93;;;0.70;;
22935;SDS011;11633;42.716;23.312;2022-09-17T17:08:26;1.00;;;0.75;;
22935;SDS011;11633;42.716;23.312;2022-09-17T17:10:51;0.68;;;0.50;;
22935;SDS011;11633;42.716;23.312;2022-09-17T17:13:16;1.45;;;0.70;;
22935;SDS011;11633;42.716;23.312;2022-09-17T17:15:42;0.98;;;0.73;;
22935;SDS011;11633;42.716;23.312;2022-09-17T17:18:07;1.10;;;0.80;;
22935;SDS011;11633;42.716;23.312;2022-09-17T17:20:35;1.55;;;0.70;;
22935;SDS011;11633;42.716;23.312;2022-09-17T17:23:01;0.70;;;0.50;;
22935;SDS011;11633;42.716;23.312;2022-09-17T17:25:26;0.90;;;0.47;;
22935;SDS011;11633;42.716;23.312;2022-09-17T17:27:52;1.58;;;0.60;;
22935;SDS011;11633;42.716;23.312;2022-09-17T17:30:17;0.73;;;0.63;;
22935;SDS011;11633;42.716;23.312;2022-09-17T17:32:48;5.63;;;1.00;;
22935;SDS011;11633;42.716;23.312;2022-09-17T17:35:14;0.52;;;0.52;;
22935;SDS011;11633;42.716;23.312;2022-09-17T17:37:39;2.72;;;0.93;;
22935;SDS011;11633;42.716;23.312;2022-09-17T17:40:04;0.77;;;0.70;;
22935;SDS011;11633;42.716;23.312;2022-09-17T17:42:32;0.80;;;0.30;;
22935;SDS011;11633;42.716;23.312;2022-09-17T17:45:02;0.38;;;0.38;;
22935;SDS011;11633;42.716;23.312;2022-09-17T17:47:27;0.60;;;0.60;;
22935;SDS011;11633;42.716;23.312;2022-09-17T17:49:53;1.02;;;0.50;;
22935;SDS011;11633;42.716;23.312;2022-09-17T17:52:18;1.60;;;0.63;;
22935;SDS011;11633;42.716;23.312;2022-09-17T17:54:43;1.65;;;0.85;;